createdAt,value
2019-05-21T00:00:25.417Z,13.50
2019-05-21T00:02:53.066Z,13.50
2019-05-21T00:05:20.606Z,13.40
2019-05-21T00:07:47.834Z,13.40
2019-05-21T00:10:15.054Z,13.40
2019-05-21T00:12:42.274Z,13.40
2019-05-21T00:15:09.983Z,13.30
2019-05-21T00:17:37.646Z,13.30
2019-05-21T00:20:05.322Z,13.40
2019-05-21T00:22:33.121Z,13.30
2019-05-21T00:25:01.402Z,13.30
2019-05-21T00:27:29.342Z,13.50
2019-05-21T00:30:33.948Z,13.30
2019-05-21T00:33:38.162Z,13.30
2019-05-21T00:36:44.125Z,13.30
2019-05-21T00:39:48.495Z,13.30
2019-05-21T00:42:25.875Z,13.30
2019-05-21T00:44:53.079Z,13.30
2019-05-21T00:47:20.667Z,13.30
2019-05-21T00:49:48.480Z,13.30
2019-05-21T00:52:15.705Z,13.20
2019-05-21T00:54:43.609Z,13.20
2019-05-21T00:57:11.825Z,13.20
2019-05-21T00:59:40.494Z,13.20
2019-05-21T01:02:07.987Z,13.10
2019-05-21T01:04:35.498Z,13.10
2019-05-21T01:07:03.382Z,13.10
2019-05-21T01:09:30.678Z,13.10
2019-05-21T01:11:57.875Z,13.10
2019-05-21T01:14:25.447Z,13.10
2019-05-21T01:16:53.929Z,13.10
2019-05-21T01:19:21.819Z,13.10
2019-05-21T01:21:49.772Z,13.10
2019-05-21T01:24:17.298Z,13.10
2019-05-21T01:26:44.883Z,13.00
2019-05-21T01:29:13.066Z,13.00
2019-05-21T01:31:41.123Z,13.00
2019-05-21T01:34:11.294Z,12.90
2019-05-21T01:36:37.888Z,12.90
2019-05-21T01:39:05.543Z,12.90
2019-05-21T01:41:33.142Z,12.90
2019-05-21T01:44:00.701Z,12.90
2019-05-21T01:46:28.591Z,12.90
2019-05-21T01:48:55.768Z,12.80
2019-05-21T01:51:23.415Z,12.90
2019-05-21T01:53:51.497Z,12.90
2019-05-21T01:56:19.039Z,12.80
2019-05-21T01:58:47.673Z,12.80
2019-05-21T02:01:14.900Z,12.80
2019-05-21T02:03:43.393Z,12.80
2019-05-21T02:06:11.594Z,12.80
2019-05-21T02:08:39.457Z,12.70
2019-05-21T02:11:07.610Z,12.70
2019-05-21T02:13:35.175Z,12.70
2019-05-21T02:16:02.446Z,12.60
2019-05-21T02:18:29.901Z,12.60
2019-05-21T02:20:57.494Z,12.50
2019-05-21T02:23:24.692Z,12.50
2019-05-21T02:25:52.316Z,12.60
2019-05-21T02:28:20.186Z,12.50
2019-05-21T02:30:48.543Z,12.50
2019-05-21T02:33:15.999Z,12.50
2019-05-21T02:35:53.495Z,12.50
2019-05-21T02:38:12.719Z,12.50
2019-05-21T02:40:39.964Z,12.50
2019-05-21T02:43:08.724Z,12.50
2019-05-21T02:45:36.540Z,12.40
2019-05-21T02:48:03.876Z,12.50
2019-05-21T02:50:31.853Z,12.50
2019-05-21T02:52:59.171Z,12.50
2019-05-21T02:55:26.702Z,12.40
2019-05-21T02:57:53.962Z,12.40
2019-05-21T03:00:40.878Z,12.40
2019-05-21T03:03:10.058Z,12.40
2019-05-21T03:05:37.752Z,12.40
2019-05-21T03:08:06.267Z,12.40
2019-05-21T03:10:33.728Z,12.30
2019-05-21T03:13:01.392Z,12.30
2019-05-21T03:15:28.587Z,12.40
2019-05-21T03:17:56.214Z,12.40
2019-05-21T03:20:23.736Z,12.40
2019-05-21T03:22:50.974Z,12.30
2019-05-21T03:25:18.906Z,12.40
2019-05-21T03:27:46.439Z,12.40
2019-05-21T03:30:14.931Z,12.30
2019-05-21T03:32:42.819Z,12.30
2019-05-21T03:35:10.524Z,12.30
2019-05-21T03:37:38.473Z,12.30
2019-05-21T03:40:07.059Z,12.30
2019-05-21T03:42:35.230Z,12.30
2019-05-21T03:45:07.327Z,12.30
2019-05-21T03:47:32.400Z,12.30
2019-05-21T03:50:00.195Z,12.30
2019-05-21T03:52:28.047Z,12.30
2019-05-21T03:54:55.763Z,12.30
2019-05-21T03:57:23.262Z,12.30
2019-05-21T03:59:50.453Z,12.30
2019-05-21T04:02:18.068Z,12.30
2019-05-21T04:04:45.414Z,12.30
2019-05-21T04:07:13.353Z,12.30
2019-05-21T04:09:40.675Z,12.20
2019-05-21T04:12:08.537Z,12.20
2019-05-21T04:14:43.299Z,12.20
2019-05-21T04:17:39.038Z,12.20
2019-05-21T04:20:06.877Z,12.20
2019-05-21T04:22:36.035Z,12.20
2019-05-21T04:25:05.170Z,12.20
2019-05-21T04:27:33.045Z,12.20
2019-05-21T04:30:00.359Z,12.20
2019-05-21T04:32:27.903Z,12.20
2019-05-21T04:34:55.432Z,12.20
2019-05-21T04:37:22.911Z,12.20
2019-05-21T04:39:51.159Z,12.20
2019-05-21T04:42:19.244Z,12.20
2019-05-21T04:44:46.749Z,12.20
2019-05-21T04:47:14.647Z,12.20
2019-05-21T04:49:42.440Z,12.10
2019-05-21T04:52:09.623Z,12.20
2019-05-21T04:54:37.445Z,12.20
2019-05-21T04:57:06.857Z,12.20
2019-05-21T04:59:34.436Z,12.20
2019-05-21T05:02:01.744Z,12.10
2019-05-21T05:04:29.061Z,12.10
2019-05-21T05:06:56.638Z,12.20
2019-05-21T05:09:24.383Z,12.20
2019-05-21T05:11:51.960Z,12.10
2019-05-21T05:14:19.534Z,12.20
2019-05-21T05:16:47.408Z,12.10
2019-05-21T05:19:15.279Z,12.10
2019-05-21T05:21:42.838Z,12.10
2019-05-21T05:24:10.366Z,12.10
2019-05-21T05:26:37.547Z,12.10
2019-05-21T05:29:05.138Z,12.10
2019-05-21T05:31:32.312Z,12.10
2019-05-21T05:33:59.838Z,12.10
2019-05-21T05:36:27.411Z,12.10
2019-05-21T05:38:55.008Z,12.10
2019-05-21T05:41:22.606Z,12.20
2019-05-21T05:43:50.938Z,12.10
2019-05-21T05:46:18.129Z,12.20
2019-05-21T05:48:54.971Z,12.20
2019-05-21T05:51:23.095Z,12.20
2019-05-21T05:53:56.892Z,12.20
2019-05-21T05:56:24.662Z,12.20
2019-05-21T05:58:52.291Z,12.00
2019-05-21T06:01:19.816Z,12.10
2019-05-21T06:03:47.010Z,12.10
2019-05-21T06:06:14.537Z,12.10
2019-05-21T06:08:41.970Z,12.10
2019-05-21T06:11:09.805Z,12.10
2019-05-21T06:13:37.194Z,12.20
2019-05-21T06:16:04.507Z,12.10
2019-05-21T06:18:35.563Z,12.10
2019-05-21T06:21:01.987Z,12.10
2019-05-21T06:23:29.519Z,12.10
2019-05-21T06:25:57.748Z,12.10
2019-05-21T06:28:25.327Z,12.10
2019-05-21T06:30:52.849Z,12.10
2019-05-21T06:33:20.060Z,12.10
2019-05-21T06:35:47.437Z,12.10
2019-05-21T06:38:18.059Z,12.10
2019-05-21T06:40:44.139Z,12.10
2019-05-21T06:43:11.262Z,12.00
2019-05-21T06:45:38.508Z,12.00
2019-05-21T06:48:05.773Z,12.00
2019-05-21T06:50:37.109Z,12.10
2019-05-21T06:53:03.484Z,12.10
2019-05-21T06:55:32.160Z,11.10
2019-05-21T06:57:59.753Z,12.10
2019-05-21T07:00:27.335Z,12.10
2019-05-21T07:02:54.881Z,12.10
2019-05-21T07:05:22.205Z,12.10
2019-05-21T07:07:49.438Z,12.00
2019-05-21T07:10:16.870Z,12.10
2019-05-21T07:12:44.580Z,12.10
2019-05-21T07:15:12.314Z,12.10
2019-05-21T07:17:39.929Z,12.10
2019-05-21T07:20:07.387Z,12.10
2019-05-21T07:22:34.674Z,12.00
2019-05-21T07:25:02.257Z,12.10
2019-05-21T07:27:29.778Z,12.10
2019-05-21T07:29:57.203Z,12.10
2019-05-21T07:32:24.848Z,12.10
2019-05-21T07:34:52.715Z,12.10
2019-05-21T07:37:19.892Z,12.10
2019-05-21T07:39:48.036Z,12.20
2019-05-21T07:42:15.521Z,12.20
2019-05-21T07:44:42.755Z,12.20
2019-05-21T07:47:10.648Z,12.20
2019-05-21T07:49:38.174Z,12.20
2019-05-21T07:52:05.375Z,12.20
2019-05-21T07:54:33.133Z,12.20
2019-05-21T07:57:00.648Z,12.10
2019-05-21T07:59:28.147Z,12.10
2019-05-21T08:01:56.032Z,12.10
2019-05-21T08:04:23.124Z,12.10
2019-05-21T08:06:51.370Z,12.10
2019-05-21T08:09:18.724Z,12.10
2019-05-21T08:11:47.118Z,12.10
2019-05-21T08:14:15.261Z,12.10
2019-05-21T08:16:42.658Z,12.10
2019-05-21T08:19:09.986Z,12.10
2019-05-21T08:21:37.648Z,12.10
2019-05-21T08:24:04.943Z,12.10
2019-05-21T08:26:32.499Z,12.00
2019-05-21T08:29:00.364Z,12.10
2019-05-21T08:31:28.252Z,12.10
2019-05-21T08:33:55.629Z,12.10
2019-05-21T08:36:23.579Z,12.10
2019-05-21T08:38:51.097Z,12.10
2019-05-21T08:41:18.615Z,12.10
2019-05-21T08:43:47.550Z,12.10
2019-05-21T08:46:15.653Z,12.10
2019-05-21T08:48:43.070Z,12.10
2019-05-21T08:51:10.761Z,12.10
2019-05-21T08:53:38.863Z,12.10
2019-05-21T08:56:07.072Z,12.00
2019-05-21T08:58:34.904Z,12.00
2019-05-21T09:01:02.456Z,12.10
2019-05-21T09:03:29.661Z,12.10
2019-05-21T09:05:57.412Z,12.00
2019-05-21T09:08:24.575Z,12.00
2019-05-21T09:10:52.098Z,12.00
2019-05-21T09:13:19.624Z,12.00
2019-05-21T09:15:47.729Z,12.00
2019-05-21T09:18:15.952Z,11.90
2019-05-21T09:20:43.503Z,11.90
2019-05-21T09:23:10.743Z,11.90
2019-05-21T09:25:38.403Z,12.00
2019-05-21T09:28:06.110Z,11.90
2019-05-21T09:30:33.306Z,12.00
2019-05-21T09:33:00.807Z,12.00
2019-05-21T09:35:28.008Z,12.10
2019-05-21T09:37:55.446Z,12.10
2019-05-21T09:40:24.762Z,12.00
2019-05-21T09:42:52.270Z,12.10
2019-05-21T09:45:20.187Z,12.10
2019-05-21T09:47:47.548Z,12.10
2019-05-21T09:50:15.190Z,12.10
2019-05-21T09:52:42.898Z,12.20
2019-05-21T09:55:10.962Z,12.20
2019-05-21T09:57:44.202Z,12.20
2019-05-21T10:00:33.642Z,12.20
2019-05-21T10:03:01.223Z,12.20
2019-05-21T10:05:28.396Z,12.20
2019-05-21T10:07:55.878Z,12.20
2019-05-21T10:10:23.358Z,12.20
2019-05-21T10:12:50.923Z,12.20
2019-05-21T10:15:18.608Z,12.30
2019-05-21T10:17:46.143Z,12.20
2019-05-21T10:20:14.024Z,12.30
2019-05-21T10:22:41.833Z,12.30
2019-05-21T10:25:09.451Z,12.30
2019-05-21T10:27:37.178Z,12.30
2019-05-21T10:30:06.166Z,12.30
2019-05-21T10:32:34.087Z,12.30
2019-05-21T10:35:01.640Z,12.30
2019-05-21T10:37:29.544Z,12.30
2019-05-21T10:39:57.022Z,12.30
2019-05-21T10:42:24.457Z,12.40
2019-05-21T10:44:51.676Z,12.40
2019-05-21T10:47:19.163Z,12.40
2019-05-21T10:49:47.039Z,12.40
2019-05-21T10:52:14.615Z,12.40
2019-05-21T10:54:41.810Z,12.40
2019-05-21T10:57:09.019Z,12.30
2019-05-21T10:59:36.210Z,12.40
2019-05-21T11:02:13.804Z,12.30
2019-05-21T11:05:00.704Z,12.30
2019-05-21T11:07:28.303Z,12.30
2019-05-21T11:09:55.782Z,12.30
2019-05-21T11:12:23.435Z,12.30
2019-05-21T11:14:51.556Z,12.30
2019-05-21T11:17:19.527Z,12.30
2019-05-21T11:19:47.079Z,12.30
2019-05-21T11:22:15.069Z,12.40
2019-05-21T11:24:42.939Z,12.40
2019-05-21T11:27:10.579Z,12.30
2019-05-21T11:29:37.727Z,12.30
2019-05-21T11:32:05.011Z,12.40
2019-05-21T11:34:32.257Z,12.40
2019-05-21T11:36:59.819Z,12.40
2019-05-21T11:39:27.373Z,12.40
2019-05-21T11:41:56.583Z,12.40
2019-05-21T11:44:24.144Z,12.40
2019-05-21T11:46:52.259Z,12.30
2019-05-21T11:49:19.487Z,12.30
2019-05-21T11:51:46.923Z,12.30
2019-05-21T11:54:15.057Z,12.30
2019-05-21T11:56:42.245Z,12.40
2019-05-21T11:59:10.352Z,12.30
2019-05-21T12:01:38.216Z,12.30
2019-05-21T12:04:06.020Z,12.50
2019-05-21T12:06:33.857Z,12.30
2019-05-21T12:09:01.671Z,12.30
2019-05-21T12:11:29.639Z,12.30
2019-05-21T12:13:57.688Z,12.30
2019-05-21T12:16:25.480Z,12.30
2019-05-21T12:18:53.095Z,12.30
2019-05-21T12:21:21.034Z,12.20
2019-05-21T12:23:49.182Z,12.20
2019-05-21T12:26:16.382Z,12.20
2019-05-21T12:28:43.695Z,12.20
2019-05-21T12:31:11.013Z,12.20
2019-05-21T12:33:38.695Z,12.20
2019-05-21T12:36:07.421Z,12.20
2019-05-21T12:38:35.200Z,12.20
2019-05-21T12:41:02.677Z,12.20
2019-05-21T12:43:29.996Z,12.20
2019-05-21T12:45:57.268Z,12.20
2019-05-21T12:48:24.784Z,12.20
2019-05-21T12:50:52.049Z,12.20
2019-05-21T12:53:20.072Z,12.20
2019-05-21T12:55:47.602Z,12.20
2019-05-21T12:58:15.066Z,12.20
2019-05-21T13:00:42.453Z,12.20
2019-05-21T13:03:09.987Z,12.30
2019-05-21T13:05:38.203Z,12.30
2019-05-21T13:08:05.721Z,12.20
2019-05-21T13:10:34.172Z,12.20
2019-05-21T13:13:01.579Z,12.20
2019-05-21T13:15:29.151Z,12.20
2019-05-21T13:17:56.740Z,12.20
2019-05-21T13:20:24.278Z,12.30
2019-05-21T13:22:52.200Z,12.20
2019-05-21T13:25:20.026Z,12.30
2019-05-21T13:27:47.894Z,12.30
2019-05-21T13:30:16.447Z,12.30
2019-05-21T13:32:44.027Z,12.20
2019-05-21T13:35:11.740Z,12.20
2019-05-21T13:37:39.715Z,12.20
2019-05-21T13:40:09.067Z,12.20
2019-05-21T13:42:36.672Z,12.20
2019-05-21T13:45:05.163Z,12.30
2019-05-21T13:47:32.349Z,12.30
2019-05-21T13:49:59.894Z,12.30
2019-05-21T13:52:27.439Z,12.30
2019-05-21T13:54:54.612Z,12.30
2019-05-21T13:57:22.385Z,12.30
2019-05-21T13:59:49.967Z,12.30
2019-05-21T14:02:19.762Z,12.30
2019-05-21T14:04:46.980Z,12.30
2019-05-21T14:07:14.481Z,12.40
2019-05-21T14:09:42.660Z,12.40
2019-05-21T14:12:09.992Z,12.30
2019-05-21T14:14:37.482Z,12.30
2019-05-21T14:17:05.047Z,12.40
2019-05-21T14:19:32.292Z,12.40
2019-05-21T14:21:59.720Z,12.40
2019-05-21T14:24:27.232Z,12.40
2019-05-21T14:26:54.747Z,12.40
2019-05-21T14:29:22.661Z,12.40
2019-05-21T14:31:49.956Z,12.40
2019-05-21T14:34:17.241Z,12.40
2019-05-21T14:36:44.834Z,12.40
2019-05-21T14:39:14.673Z,12.40
2019-05-21T14:41:41.896Z,12.40
2019-05-21T14:44:09.445Z,12.30
2019-05-21T14:46:36.635Z,12.40
2019-05-21T14:49:04.811Z,12.40
2019-05-21T14:51:32.675Z,12.40
2019-05-21T14:54:03.902Z,12.40
2019-05-21T14:56:31.120Z,12.40
2019-05-21T14:58:58.393Z,12.40
2019-05-21T15:01:25.730Z,12.40
2019-05-21T15:03:53.339Z,12.40
2019-05-21T15:06:21.027Z,12.30
2019-05-21T15:08:48.552Z,12.30
2019-05-21T15:11:16.154Z,12.30
2019-05-21T15:13:43.425Z,12.30
2019-05-21T15:16:10.993Z,12.30
2019-05-21T15:18:38.209Z,12.30
2019-05-21T15:21:17.072Z,12.30
2019-05-21T15:23:45.128Z,12.30
2019-05-21T15:26:13.310Z,12.30
2019-05-21T15:28:41.200Z,12.30
2019-05-21T15:31:08.754Z,12.30
2019-05-21T15:33:36.251Z,12.30
2019-05-21T15:36:03.787Z,12.30
2019-05-21T15:38:48.445Z,12.30
2019-05-21T15:41:10.181Z,12.30
2019-05-21T15:43:30.571Z,12.30
2019-05-21T15:45:57.738Z,12.40
2019-05-21T15:48:26.866Z,12.40
2019-05-21T15:50:54.755Z,12.30
2019-05-21T15:53:22.354Z,12.40
2019-05-21T15:55:49.447Z,12.40
2019-05-21T15:58:17.709Z,12.40
2019-05-21T16:00:45.175Z,12.40
2019-05-21T16:03:13.056Z,12.50
2019-05-21T16:05:40.557Z,12.50
2019-05-21T16:08:08.039Z,12.50
2019-05-21T16:10:35.596Z,12.50
2019-05-21T16:13:03.158Z,12.50
2019-05-21T16:15:30.363Z,12.50
2019-05-21T16:17:57.780Z,12.50
2019-05-21T16:20:25.082Z,12.50
2019-05-21T16:22:52.685Z,12.50
2019-05-21T16:25:20.195Z,12.50
2019-05-21T16:27:47.822Z,12.50
2019-05-21T16:30:15.058Z,12.50
2019-05-21T16:32:42.339Z,12.50
2019-05-21T16:35:10.761Z,12.50
2019-05-21T16:37:38.350Z,12.50
2019-05-21T16:40:06.514Z,12.50
2019-05-21T16:42:34.020Z,12.50
2019-05-21T16:45:02.107Z,12.50
2019-05-21T16:47:43.941Z,12.50
2019-05-21T16:49:58.691Z,12.50
2019-05-21T16:52:25.855Z,12.50
2019-05-21T16:54:53.427Z,12.50
2019-05-21T16:57:21.195Z,12.50
2019-05-21T16:59:48.767Z,12.40
2019-05-21T17:02:16.939Z,12.50
2019-05-21T17:04:44.870Z,12.40
2019-05-21T17:07:12.485Z,12.40
2019-05-21T17:09:39.778Z,12.40
2019-05-21T17:12:07.282Z,12.40
2019-05-21T17:14:35.054Z,12.40
2019-05-21T17:17:03.018Z,12.40
2019-05-21T17:19:30.847Z,12.40
2019-05-21T17:21:58.071Z,12.40
2019-05-21T17:24:25.619Z,12.40
2019-05-21T17:26:53.182Z,12.40
2019-05-21T17:29:21.032Z,12.50
2019-05-21T17:31:48.399Z,12.40
2019-05-21T17:34:16.203Z,12.50
2019-05-21T17:36:43.771Z,12.50
2019-05-21T17:39:11.226Z,12.40
2019-05-21T17:41:39.395Z,12.40
2019-05-21T17:44:07.071Z,12.40
2019-05-21T17:46:35.028Z,12.40
2019-05-21T17:49:02.657Z,12.50
2019-05-21T17:51:30.004Z,12.40
2019-05-21T17:53:57.746Z,12.40
2019-05-21T17:56:26.023Z,12.50
2019-05-21T17:58:53.965Z,12.50
2019-05-21T18:01:22.231Z,12.50
2019-05-21T18:03:49.542Z,12.50
2019-05-21T18:06:18.205Z,12.40
2019-05-21T18:08:46.695Z,12.50
2019-05-21T18:11:15.441Z,12.40
2019-05-21T18:13:44.064Z,12.40
2019-05-21T18:16:12.763Z,12.40
2019-05-21T18:18:41.281Z,12.50
2019-05-21T18:21:10.639Z,12.40
2019-05-21T18:23:38.328Z,12.40
2019-05-21T18:26:06.053Z,12.40
2019-05-21T18:28:33.875Z,12.40
2019-05-21T18:31:01.495Z,12.40
2019-05-21T18:33:28.994Z,12.30
2019-05-21T18:35:56.470Z,12.40
2019-05-21T18:38:24.439Z,12.40
2019-05-21T18:40:51.615Z,12.30
2019-05-21T18:43:19.139Z,12.30
2019-05-21T18:45:46.707Z,12.30
2019-05-21T18:48:14.620Z,12.40
2019-05-21T18:50:42.261Z,12.40
2019-05-21T18:53:10.198Z,12.30
2019-05-21T18:55:38.415Z,12.30
2019-05-21T18:58:06.001Z,12.30
2019-05-21T19:00:33.667Z,12.30
2019-05-21T19:03:01.616Z,12.30
2019-05-21T19:05:28.830Z,12.30
2019-05-21T19:07:56.395Z,12.30
2019-05-21T19:10:23.921Z,12.30
2019-05-21T19:12:51.187Z,12.20
2019-05-21T19:15:18.719Z,12.30
2019-05-21T19:17:46.174Z,12.20
2019-05-21T19:20:13.904Z,12.20
2019-05-21T19:22:41.394Z,12.20
2019-05-21T19:25:09.122Z,12.20
2019-05-21T19:27:37.278Z,12.10
2019-05-21T19:30:08.416Z,12.20
2019-05-21T19:32:36.060Z,12.30
2019-05-21T19:35:03.954Z,12.20
2019-05-21T19:37:31.943Z,12.20
2019-05-21T19:39:59.174Z,12.20
2019-05-21T19:42:26.388Z,12.20
2019-05-21T19:44:55.053Z,12.20
2019-05-21T19:47:22.553Z,12.20
2019-05-21T19:49:50.474Z,12.20
2019-05-21T19:52:18.351Z,12.20
2019-05-21T19:54:45.571Z,12.20
2019-05-21T19:57:13.233Z,12.20
2019-05-21T19:59:40.595Z,12.20
2019-05-21T20:02:08.799Z,12.20
2019-05-21T20:04:36.082Z,12.20
2019-05-21T20:07:07.102Z,12.20
2019-05-21T20:09:35.490Z,12.20
2019-05-21T20:12:03.712Z,12.20
2019-05-21T20:14:31.238Z,12.20
2019-05-21T20:16:59.192Z,12.10
2019-05-21T20:19:27.036Z,12.10
2019-05-21T20:21:55.222Z,12.10
2019-05-21T20:24:23.455Z,12.10
2019-05-21T20:26:51.071Z,12.10
2019-05-21T20:29:19.811Z,12.10
2019-05-21T20:31:47.348Z,12.10
2019-05-21T20:34:14.567Z,12.10
2019-05-21T20:36:42.879Z,12.10
2019-05-21T20:39:13.970Z,12.10
2019-05-21T20:41:42.878Z,12.10
2019-05-21T20:44:13.921Z,12.10
2019-05-21T20:46:42.326Z,12.10
2019-05-21T20:49:10.165Z,12.20
2019-05-21T20:51:38.221Z,12.20
2019-05-21T20:54:07.544Z,12.20
2019-05-21T20:56:36.304Z,12.20
2019-05-21T20:59:03.976Z,12.20
2019-05-21T21:01:31.889Z,12.20
2019-05-21T21:04:01.102Z,12.20
2019-05-21T21:06:35.494Z,12.20
2019-05-21T21:08:59.773Z,12.20
2019-05-21T21:11:28.745Z,12.20
2019-05-21T21:13:56.038Z,12.20
2019-05-21T21:16:23.324Z,12.20
2019-05-21T21:18:50.911Z,12.20
2019-05-21T21:21:18.812Z,12.20
2019-05-21T21:23:48.615Z,12.20
2019-05-21T21:26:17.211Z,12.20
2019-05-21T21:28:44.703Z,12.10
2019-05-21T21:31:12.950Z,12.20
2019-05-21T21:33:40.512Z,12.20
2019-05-21T21:36:08.201Z,12.20
2019-05-21T21:38:38.356Z,12.20
2019-05-21T21:41:06.759Z,12.20
2019-05-21T21:43:34.011Z,12.10
2019-05-21T21:46:01.392Z,12.10
2019-05-21T21:48:29.584Z,12.10
2019-05-21T21:50:58.143Z,12.10
2019-05-21T21:53:25.647Z,12.10
2019-05-21T21:55:53.236Z,12.10
2019-05-21T21:58:21.379Z,12.10
2019-05-21T22:01:25.229Z,12.10
2019-05-21T22:03:55.803Z,12.10
2019-05-21T22:06:24.698Z,12.10
2019-05-21T22:08:52.363Z,12.10
2019-05-21T22:11:21.153Z,12.10
2019-05-21T22:13:49.816Z,12.10
2019-05-21T22:16:17.727Z,12.10
2019-05-21T22:18:45.779Z,12.10
2019-05-21T22:21:14.039Z,12.10
2019-05-21T22:23:41.958Z,12.10
2019-05-21T22:26:09.883Z,12.10
2019-05-21T22:28:37.563Z,12.10
2019-05-21T22:31:05.962Z,12.00
2019-05-21T22:33:33.631Z,12.00
2019-05-21T22:36:00.954Z,12.00
2019-05-21T22:38:32.114Z,12.10
2019-05-21T22:40:58.390Z,12.10
2019-05-21T22:43:26.559Z,12.10
2019-05-21T22:45:54.510Z,12.10
2019-05-21T22:48:22.087Z,12.10
2019-05-21T22:50:49.983Z,12.10
2019-05-21T22:53:17.177Z,12.20
2019-05-21T22:55:45.402Z,12.50
2019-05-21T22:58:13.298Z,12.10
2019-05-21T23:00:40.845Z,12.10
2019-05-21T23:03:08.977Z,12.10
2019-05-21T23:05:36.534Z,12.10
2019-05-21T23:08:04.578Z,12.10
2019-05-21T23:10:32.131Z,12.10
2019-05-21T23:13:00.052Z,12.00
2019-05-21T23:15:28.168Z,12.00
2019-05-21T23:17:55.940Z,12.10
2019-05-21T23:20:27.284Z,12.10
2019-05-21T23:22:56.394Z,12.00
2019-05-21T23:25:24.550Z,12.00
2019-05-21T23:27:52.523Z,12.00
2019-05-21T23:30:21.370Z,12.00
2019-05-21T23:32:50.222Z,12.00
2019-05-21T23:35:18.589Z,12.00
2019-05-21T23:37:48.350Z,11.90
2019-05-21T23:40:16.402Z,11.90
2019-05-21T23:42:44.592Z,11.90
2019-05-21T23:45:14.797Z,11.90
2019-05-21T23:47:42.302Z,11.90
2019-05-21T23:50:11.293Z,12.00
2019-05-21T23:52:39.846Z,11.90
2019-05-21T23:55:10.584Z,11.90
2019-05-21T23:57:38.883Z,11.90
